Portada
METAR-TAF:

METAR-TAF

Aeroports :

Karachi, Pakistan

latitud: 24-54N, longitud: 067-08E, altitud: 21 m

Observació

L'informe es va fer fa 33 minuts, a les 18:25 UTC
Vent 4 kt del Sud-Oest
Temperatura 28°C
Humitat 70%
Pressió 1012 hPa
Visibilitat: 6000 m
Núvols disperses a una alçada de 10000 ft

METAR: OPKC 151825Z 23004KT 6000 SCT100 28/22 Q1012 NOSIG

Hora: 23:58 (18:58 UTC)

Pronòstic

L'informe es va fer fa 3 hores i 28 minuts, a les 15:30 UTC
Pronòstic vàlid del 15 a les 18 UTC al 16 a les 03 UTC
Vent 6 kt del Oest
Visibilitat: 5000 m
Cel ennuvolat a una alçada de 10000 ft
calitja
Temporalment
l' 16 a les 00 UTC al 16 a les 03 UTC
Vent 3 kt amb direcció variable
Visibilitat: 3000 m
Núvols disperses a una alçada de 3000 ft
fum

TAF: OPKC 151530Z 1518/1603 27006KT 5000 HZ BKN100 TEMPO 1600/1603 VRB03KT 3000 FU SCT030

Observacions i pronòstics meteorològics de més de 4000 aeroports (METAR i TAF).

Les estacions disponibles són els punts grocs i vermells al mapa.

Posi el ratolí al punt desitjat per veure el nom de l'estació.

Feu clic per veure les observacions i els pronòstics meteorològics.

Per canviar el mapa: feu clic els botons verds amb una creu de color negre per apropar; al botó verd amb un guió per allunyar la imatge; o en les fletxes verdes per a mapes adjacents.


METAR-TAF: